sensor_id;sensor_type;location;lat;lon;timestamp;P1;durP1;ratioP1;P2;durP2;ratioP2
25049;SDS011;13046;49.814;9.918;2024-02-16T00:01:57;19.63;;;13.63;;
25049;SDS011;13046;49.814;9.918;2024-02-16T00:04:23;16.63;;;11.40;;
25049;SDS011;13046;49.814;9.918;2024-02-16T00:06:50;18.85;;;11.90;;
25049;SDS011;13046;49.814;9.918;2024-02-16T00:09:16;13.52;;;10.43;;
25049;SDS011;13046;49.814;9.918;2024-02-16T00:11:42;13.45;;;10.95;;
25049;SDS011;13046;49.814;9.918;2024-02-16T00:14:09;17.45;;;11.55;;
25049;SDS011;13046;49.814;9.918;2024-02-16T00:16:35;15.68;;;12.35;;
25049;SDS011;13046;49.814;9.918;2024-02-16T00:19:01;17.23;;;10.65;;
25049;SDS011;13046;49.814;9.918;2024-02-16T00:21:27;19.48;;;12.65;;
25049;SDS011;13046;49.814;9.918;2024-02-16T00:23:54;20.52;;;12.98;;
25049;SDS011;13046;49.814;9.918;2024-02-16T00:26:21;25.02;;;14.02;;
25049;SDS011;13046;49.814;9.918;2024-02-16T00:28:48;20.45;;;12.43;;
25049;SDS011;13046;49.814;9.918;2024-02-16T00:31:14;16.30;;;10.73;;
25049;SDS011;13046;49.814;9.918;2024-02-16T00:33:40;18.38;;;11.20;;
25049;SDS011;13046;49.814;9.918;2024-02-16T00:36:06;21.50;;;13.70;;
25049;SDS011;13046;49.814;9.918;2024-02-16T00:38:35;19.70;;;11.90;;
25049;SDS011;13046;49.814;9.918;2024-02-16T00:41:01;16.45;;;10.95;;
25049;SDS011;13046;49.814;9.918;2024-02-16T00:43:27;19.95;;;13.07;;
25049;SDS011;13046;49.814;9.918;2024-02-16T00:45:53;20.60;;;11.00;;
25049;SDS011;13046;49.814;9.918;2024-02-16T00:48:21;13.20;;;9.90;;
25049;SDS011;13046;49.814;9.918;2024-02-16T00:50:47;12.07;;;9.25;;
25049;SDS011;13046;49.814;9.918;2024-02-16T00:53:13;13.43;;;8.85;;
25049;SDS011;13046;49.814;9.918;2024-02-16T00:55:39;13.55;;;11.40;;
25049;SDS011;13046;49.814;9.918;2024-02-16T00:58:06;13.68;;;8.55;;
25049;SDS011;13046;49.814;9.918;2024-02-16T01:00:33;10.50;;;9.40;;
25049;SDS011;13046;49.814;9.918;2024-02-16T01:02:59;9.52;;;8.38;;
25049;SDS011;13046;49.814;9.918;2024-02-16T01:05:25;12.98;;;9.27;;
25049;SDS011;13046;49.814;9.918;2024-02-16T01:07:51;11.93;;;8.65;;
25049;SDS011;13046;49.814;9.918;2024-02-16T01:10:17;11.68;;;8.82;;
25049;SDS011;13046;49.814;9.918;2024-02-16T01:12:43;10.40;;;8.23;;
25049;SDS011;13046;49.814;9.918;2024-02-16T01:15:09;13.65;;;9.70;;
25049;SDS011;13046;49.814;9.918;2024-02-16T01:17:36;10.80;;;9.13;;
25049;SDS011;13046;49.814;9.918;2024-02-16T01:20:02;15.30;;;8.13;;
25049;SDS011;13046;49.814;9.918;2024-02-16T01:22:29;11.10;;;7.82;;
25049;SDS011;13046;49.814;9.918;2024-02-16T01:24:55;11.73;;;8.50;;
25049;SDS011;13046;49.814;9.918;2024-02-16T01:27:21;8.75;;;7.85;;
25049;SDS011;13046;49.814;9.918;2024-02-16T01:29:47;10.77;;;8.65;;
25049;SDS011;13046;49.814;9.918;2024-02-16T01:32:14;12.73;;;8.00;;
25049;SDS011;13046;49.814;9.918;2024-02-16T01:34:40;15.63;;;8.93;;
25049;SDS011;13046;49.814;9.918;2024-02-16T01:37:06;8.38;;;7.55;;
25049;SDS011;13046;49.814;9.918;2024-02-16T01:39:32;9.02;;;7.53;;
25049;SDS011;13046;49.814;9.918;2024-02-16T01:41:58;10.05;;;7.75;;
25049;SDS011;13046;49.814;9.918;2024-02-16T01:44:24;10.13;;;9.07;;
25049;SDS011;13046;49.814;9.918;2024-02-16T01:46:51;10.98;;;9.40;;
25049;SDS011;13046;49.814;9.918;2024-02-16T01:49:17;11.55;;;9.88;;
25049;SDS011;13046;49.814;9.918;2024-02-16T01:51:43;14.13;;;10.38;;
25049;SDS011;13046;49.814;9.918;2024-02-16T01:54:11;13.48;;;10.38;;
25049;SDS011;13046;49.814;9.918;2024-02-16T01:56:37;13.65;;;10.35;;
25049;SDS011;13046;49.814;9.918;2024-02-16T01:59:03;12.80;;;8.90;;
25049;SDS011;13046;49.814;9.918;2024-02-16T02:01:29;11.45;;;8.55;;
25049;SDS011;13046;49.814;9.918;2024-02-16T02:03:56;10.23;;;8.80;;
25049;SDS011;13046;49.814;9.918;2024-02-16T02:06:22;7.47;;;6.20;;
25049;SDS011;13046;49.814;9.918;2024-02-16T02:08:48;11.68;;;8.27;;
25049;SDS011;13046;49.814;9.918;2024-02-16T02:11:14;10.10;;;8.85;;
25049;SDS011;13046;49.814;9.918;2024-02-16T02:13:40;10.93;;;7.93;;
25049;SDS011;13046;49.814;9.918;2024-02-16T02:16:07;9.10;;;7.43;;
25049;SDS011;13046;49.814;9.918;2024-02-16T02:18:33;10.98;;;8.38;;
25049;SDS011;13046;49.814;9.918;2024-02-16T02:21:00;14.07;;;7.68;;
25049;SDS011;13046;49.814;9.918;2024-02-16T02:23:26;9.10;;;7.90;;
25049;SDS011;13046;49.814;9.918;2024-02-16T02:25:52;8.57;;;7.70;;
25049;SDS011;13046;49.814;9.918;2024-02-16T02:28:18;7.95;;;7.20;;
25049;SDS011;13046;49.814;9.918;2024-02-16T02:30:45;9.30;;;8.15;;
25049;SDS011;13046;49.814;9.918;2024-02-16T02:33:12;13.88;;;8.90;;
25049;SDS011;13046;49.814;9.918;2024-02-16T02:35:39;8.82;;;7.88;;
25049;SDS011;13046;49.814;9.918;2024-02-16T02:38:05;9.25;;;7.40;;
25049;SDS011;13046;49.814;9.918;2024-02-16T02:40:32;13.32;;;8.15;;
25049;SDS011;13046;49.814;9.918;2024-02-16T02:42:58;10.57;;;8.23;;
25049;SDS011;13046;49.814;9.918;2024-02-16T02:45:24;10.50;;;8.35;;
25049;SDS011;13046;49.814;9.918;2024-02-16T02:47:51;8.43;;;7.65;;
25049;SDS011;13046;49.814;9.918;2024-02-16T02:50:17;14.00;;;8.02;;
25049;SDS011;13046;49.814;9.918;2024-02-16T02:52:43;12.75;;;8.80;;
25049;SDS011;13046;49.814;9.918;2024-02-16T02:55:11;8.50;;;7.00;;
25049;SDS011;13046;49.814;9.918;2024-02-16T02:57:37;11.90;;;8.18;;
25049;SDS011;13046;49.814;9.918;2024-02-16T03:00:06;12.68;;;7.90;;
25049;SDS011;13046;49.814;9.918;2024-02-16T03:02:45;10.52;;;6.95;;
25049;SDS011;13046;49.814;9.918;2024-02-16T03:05:12;8.30;;;7.18;;
25049;SDS011;13046;49.814;9.918;2024-02-16T03:07:38;9.48;;;6.55;;
25049;SDS011;13046;49.814;9.918;2024-02-16T03:10:04;7.47;;;6.60;;
25049;SDS011;13046;49.814;9.918;2024-02-16T03:12:31;8.40;;;6.75;;
25049;SDS011;13046;49.814;9.918;2024-02-16T03:14:57;7.32;;;6.63;;
25049;SDS011;13046;49.814;9.918;2024-02-16T03:17:23;11.10;;;6.93;;
25049;SDS011;13046;49.814;9.918;2024-02-16T03:19:49;9.10;;;8.05;;
25049;SDS011;13046;49.814;9.918;2024-02-16T03:22:16;10.15;;;7.88;;
25049;SDS011;13046;49.814;9.918;2024-02-16T03:24:42;12.68;;;8.43;;
25049;SDS011;13046;49.814;9.918;2024-02-16T03:27:10;9.88;;;8.10;;
25049;SDS011;13046;49.814;9.918;2024-02-16T03:29:36;7.78;;;6.25;;
25049;SDS011;13046;49.814;9.918;2024-02-16T03:32:02;10.30;;;7.30;;
25049;SDS011;13046;49.814;9.918;2024-02-16T03:34:29;7.90;;;7.00;;
25049;SDS011;13046;49.814;9.918;2024-02-16T03:36:55;9.32;;;6.68;;
25049;SDS011;13046;49.814;9.918;2024-02-16T03:39:23;14.18;;;8.23;;
25049;SDS011;13046;49.814;9.918;2024-02-16T03:41:49;9.10;;;7.32;;
25049;SDS011;13046;49.814;9.918;2024-02-16T03:44:15;7.28;;;6.35;;
25049;SDS011;13046;49.814;9.918;2024-02-16T03:46:42;7.80;;;5.97;;
25049;SDS011;13046;49.814;9.918;2024-02-16T03:49:08;8.38;;;6.93;;
25049;SDS011;13046;49.814;9.918;2024-02-16T03:51:35;10.75;;;6.95;;
25049;SDS011;13046;49.814;9.918;2024-02-16T03:54:02;11.45;;;7.32;;
25049;SDS011;13046;49.814;9.918;2024-02-16T03:56:29;10.10;;;7.00;;
25049;SDS011;13046;49.814;9.918;2024-02-16T03:58:55;9.38;;;7.20;;
25049;SDS011;13046;49.814;9.918;2024-02-16T04:01:21;8.90;;;7.20;;
25049;SDS011;13046;49.814;9.918;2024-02-16T04:03:47;8.25;;;7.25;;
25049;SDS011;13046;49.814;9.918;2024-02-16T04:06:14;9.65;;;7.43;;
25049;SDS011;13046;49.814;9.918;2024-02-16T04:08:40;8.80;;;7.28;;
25049;SDS011;13046;49.814;9.918;2024-02-16T04:11:10;8.70;;;6.93;;
25049;SDS011;13046;49.814;9.918;2024-02-16T04:13:37;9.07;;;6.90;;
25049;SDS011;13046;49.814;9.918;2024-02-16T04:16:03;8.82;;;7.07;;
25049;SDS011;13046;49.814;9.918;2024-02-16T04:18:29;9.80;;;7.15;;
25049;SDS011;13046;49.814;9.918;2024-02-16T04:20:55;10.35;;;7.25;;
25049;SDS011;13046;49.814;9.918;2024-02-16T04:23:21;7.25;;;6.55;;
25049;SDS011;13046;49.814;9.918;2024-02-16T04:25:47;9.13;;;7.97;;
25049;SDS011;13046;49.814;9.918;2024-02-16T04:28:13;10.48;;;8.98;;
25049;SDS011;13046;49.814;9.918;2024-02-16T04:30:40;9.30;;;6.90;;
25049;SDS011;13046;49.814;9.918;2024-02-16T04:33:06;11.75;;;8.02;;
25049;SDS011;13046;49.814;9.918;2024-02-16T04:35:32;10.25;;;6.93;;
25049;SDS011;13046;49.814;9.918;2024-02-16T04:37:58;11.63;;;8.02;;
25049;SDS011;13046;49.814;9.918;2024-02-16T04:40:25;9.82;;;7.70;;
25049;SDS011;13046;49.814;9.918;2024-02-16T04:42:51;8.38;;;7.40;;
25049;SDS011;13046;49.814;9.918;2024-02-16T04:45:17;7.53;;;6.30;;
25049;SDS011;13046;49.814;9.918;2024-02-16T04:47:45;8.43;;;6.65;;
25049;SDS011;13046;49.814;9.918;2024-02-16T04:50:11;9.57;;;7.38;;
25049;SDS011;13046;49.814;9.918;2024-02-16T04:52:37;10.48;;;7.13;;
25049;SDS011;13046;49.814;9.918;2024-02-16T04:55:05;8.55;;;6.68;;
25049;SDS011;13046;49.814;9.918;2024-02-16T04:57:32;8.27;;;7.47;;
25049;SDS011;13046;49.814;9.918;2024-02-16T04:59:59;9.20;;;6.32;;
25049;SDS011;13046;49.814;9.918;2024-02-16T05:02:25;8.98;;;6.85;;
25049;SDS011;13046;49.814;9.918;2024-02-16T05:04:51;9.20;;;7.57;;
25049;SDS011;13046;49.814;9.918;2024-02-16T05:07:19;7.55;;;6.85;;
25049;SDS011;13046;49.814;9.918;2024-02-16T05:09:45;7.47;;;6.68;;
25049;SDS011;13046;49.814;9.918;2024-02-16T05:12:11;8.80;;;7.95;;
25049;SDS011;13046;49.814;9.918;2024-02-16T05:14:37;8.98;;;7.22;;
25049;SDS011;13046;49.814;9.918;2024-02-16T05:17:03;11.27;;;7.97;;
25049;SDS011;13046;49.814;9.918;2024-02-16T05:19:33;9.95;;;8.80;;
25049;SDS011;13046;49.814;9.918;2024-02-16T05:22:02;10.90;;;8.20;;
25049;SDS011;13046;49.814;9.918;2024-02-16T05:24:28;9.20;;;8.30;;
25049;SDS011;13046;49.814;9.918;2024-02-16T05:26:56;11.02;;;8.95;;
25049;SDS011;13046;49.814;9.918;2024-02-16T05:29:22;12.50;;;8.95;;
25049;SDS011;13046;49.814;9.918;2024-02-16T05:31:50;11.93;;;10.73;;
25049;SDS011;13046;49.814;9.918;2024-02-16T05:34:16;11.13;;;10.02;;
25049;SDS011;13046;49.814;9.918;2024-02-16T05:36:42;9.48;;;8.63;;
25049;SDS011;13046;49.814;9.918;2024-02-16T05:39:10;12.55;;;9.30;;
25049;SDS011;13046;49.814;9.918;2024-02-16T05:41:49;11.20;;;10.10;;
25049;SDS011;13046;49.814;9.918;2024-02-16T05:44:16;12.10;;;9.60;;
25049;SDS011;13046;49.814;9.918;2024-02-16T05:46:43;9.80;;;8.10;;
25049;SDS011;13046;49.814;9.918;2024-02-16T05:49:10;18.15;;;9.90;;
25049;SDS011;13046;49.814;9.918;2024-02-16T05:51:36;10.38;;;7.88;;
25049;SDS011;13046;49.814;9.918;2024-02-16T05:54:04;11.70;;;8.18;;
25049;SDS011;13046;49.814;9.918;2024-02-16T05:56:30;14.45;;;11.70;;
25049;SDS011;13046;49.814;9.918;2024-02-16T05:58:59;21.75;;;18.60;;
25049;SDS011;13046;49.814;9.918;2024-02-16T06:01:25;14.77;;;10.68;;
25049;SDS011;13046;49.814;9.918;2024-02-16T06:03:52;7.57;;;6.93;;
25049;SDS011;13046;49.814;9.918;2024-02-16T06:06:18;11.20;;;9.52;;
25049;SDS011;13046;49.814;9.918;2024-02-16T06:08:45;14.38;;;10.50;;
25049;SDS011;13046;49.814;9.918;2024-02-16T06:11:11;14.57;;;10.68;;
25049;SDS011;13046;49.814;9.918;2024-02-16T06:13:37;11.38;;;10.25;;
25049;SDS011;13046;49.814;9.918;2024-02-16T06:16:07;12.00;;;9.88;;
25049;SDS011;13046;49.814;9.918;2024-02-16T06:18:34;11.88;;;10.75;;
25049;SDS011;13046;49.814;9.918;2024-02-16T06:21:00;13.00;;;9.93;;
25049;SDS011;13046;49.814;9.918;2024-02-16T06:23:26;11.88;;;10.68;;
25049;SDS011;13046;49.814;9.918;2024-02-16T06:25:52;12.05;;;9.75;;
25049;SDS011;13046;49.814;9.918;2024-02-16T06:28:18;15.70;;;10.95;;
25049;SDS011;13046;49.814;9.918;2024-02-16T06:30:44;11.98;;;9.85;;
25049;SDS011;13046;49.814;9.918;2024-02-16T06:33:11;14.65;;;9.60;;
25049;SDS011;13046;49.814;9.918;2024-02-16T06:35:38;20.55;;;9.48;;
25049;SDS011;13046;49.814;9.918;2024-02-16T06:38:04;11.30;;;9.57;;
25049;SDS011;13046;49.814;9.918;2024-02-16T06:40:30;14.75;;;12.73;;
25049;SDS011;13046;49.814;9.918;2024-02-16T06:42:57;11.32;;;9.90;;
25049;SDS011;13046;49.814;9.918;2024-02-16T06:45:23;12.52;;;8.55;;
25049;SDS011;13046;49.814;9.918;2024-02-16T06:47:50;11.82;;;9.57;;
25049;SDS011;13046;49.814;9.918;2024-02-16T06:50:16;11.48;;;9.00;;
25049;SDS011;13046;49.814;9.918;2024-02-16T06:52:42;10.82;;;9.25;;
25049;SDS011;13046;49.814;9.918;2024-02-16T06:55:09;11.73;;;9.25;;
25049;SDS011;13046;49.814;9.918;2024-02-16T06:57:35;14.13;;;9.00;;
25049;SDS011;13046;49.814;9.918;2024-02-16T07:00:01;10.02;;;9.13;;
25049;SDS011;13046;49.814;9.918;2024-02-16T07:02:28;10.98;;;9.95;;
25049;SDS011;13046;49.814;9.918;2024-02-16T07:04:54;11.75;;;10.65;;
25049;SDS011;13046;49.814;9.918;2024-02-16T07:07:20;11.05;;;9.82;;
25049;SDS011;13046;49.814;9.918;2024-02-16T07:09:46;11.20;;;10.13;;
25049;SDS011;13046;49.814;9.918;2024-02-16T07:12:12;10.52;;;9.43;;
25049;SDS011;13046;49.814;9.918;2024-02-16T07:14:39;10.05;;;9.05;;
25049;SDS011;13046;49.814;9.918;2024-02-16T07:17:05;8.55;;;7.82;;
25049;SDS011;13046;49.814;9.918;2024-02-16T07:19:34;10.98;;;9.88;;
25049;SDS011;13046;49.814;9.918;2024-02-16T07:22:01;22.63;;;17.17;;
25049;SDS011;13046;49.814;9.918;2024-02-16T07:24:27;55.20;;;33.08;;
25049;SDS011;13046;49.814;9.918;2024-02-16T07:26:53;99.70;;;53.20;;
25049;SDS011;13046;49.814;9.918;2024-02-16T07:29:20;123.53;;;65.15;;
25049;SDS011;13046;49.814;9.918;2024-02-16T07:31:46;99.15;;;58.85;;
25049;SDS011;13046;49.814;9.918;2024-02-16T07:34:12;70.25;;;40.85;;
25049;SDS011;13046;49.814;9.918;2024-02-16T07:36:38;44.75;;;28.58;;
25049;SDS011;13046;49.814;9.918;2024-02-16T07:39:04;19.65;;;14.55;;
25049;SDS011;13046;49.814;9.918;2024-02-16T07:41:30;15.57;;;11.80;;
25049;SDS011;13046;49.814;9.918;2024-02-16T07:43:56;14.02;;;11.40;;
25049;SDS011;13046;49.814;9.918;2024-02-16T07:46:22;33.88;;;22.65;;
25049;SDS011;13046;49.814;9.918;2024-02-16T07:48:48;51.90;;;34.03;;
25049;SDS011;13046;49.814;9.918;2024-02-16T07:51:14;41.92;;;28.73;;
25049;SDS011;13046;49.814;9.918;2024-02-16T07:53:41;44.22;;;29.58;;
25049;SDS011;13046;49.814;9.918;2024-02-16T07:56:09;33.47;;;24.42;;
25049;SDS011;13046;49.814;9.918;2024-02-16T07:58:35;33.35;;;21.58;;
25049;SDS011;13046;49.814;9.918;2024-02-16T08:01:01;31.20;;;20.90;;
25049;SDS011;13046;49.814;9.918;2024-02-16T08:03:28;25.77;;;21.17;;
25049;SDS011;13046;49.814;9.918;2024-02-16T08:05:55;29.88;;;19.85;;
25049;SDS011;13046;49.814;9.918;2024-02-16T08:08:24;26.75;;;19.95;;
25049;SDS011;13046;49.814;9.918;2024-02-16T08:10:50;24.05;;;19.15;;
25049;SDS011;13046;49.814;9.918;2024-02-16T08:13:17;25.00;;;19.75;;
25049;SDS011;13046;49.814;9.918;2024-02-16T08:15:43;25.55;;;19.17;;
25049;SDS011;13046;49.814;9.918;2024-02-16T08:18:09;22.48;;;18.65;;
25049;SDS011;13046;49.814;9.918;2024-02-16T08:20:36;19.98;;;14.95;;
25049;SDS011;13046;49.814;9.918;2024-02-16T08:23:03;17.33;;;13.63;;
25049;SDS011;13046;49.814;9.918;2024-02-16T08:25:29;16.73;;;13.77;;
25049;SDS011;13046;49.814;9.918;2024-02-16T08:27:58;35.55;;;14.10;;
25049;SDS011;13046;49.814;9.918;2024-02-16T08:30:25;21.27;;;12.48;;
25049;SDS011;13046;49.814;9.918;2024-02-16T08:32:51;14.25;;;11.93;;
25049;SDS011;13046;49.814;9.918;2024-02-16T08:35:17;18.38;;;13.57;;
25049;SDS011;13046;49.814;9.918;2024-02-16T08:37:43;16.05;;;13.02;;
25049;SDS011;13046;49.814;9.918;2024-02-16T08:40:12;13.77;;;12.38;;
25049;SDS011;13046;49.814;9.918;2024-02-16T08:42:40;14.90;;;12.35;;
25049;SDS011;13046;49.814;9.918;2024-02-16T08:45:07;15.95;;;12.30;;
25049;SDS011;13046;49.814;9.918;2024-02-16T08:47:34;14.85;;;13.38;;
25049;SDS011;13046;49.814;9.918;2024-02-16T08:50:00;15.02;;;13.10;;
25049;SDS011;13046;49.814;9.918;2024-02-16T08:52:26;14.50;;;13.00;;
25049;SDS011;13046;49.814;9.918;2024-02-16T08:54:53;16.55;;;14.00;;
25049;SDS011;13046;49.814;9.918;2024-02-16T08:57:19;16.33;;;13.10;;
25049;SDS011;13046;49.814;9.918;2024-02-16T08:59:45;16.50;;;12.45;;
25049;SDS011;13046;49.814;9.918;2024-02-16T09:02:11;14.98;;;12.60;;
25049;SDS011;13046;49.814;9.918;2024-02-16T09:04:37;15.73;;;13.27;;
25049;SDS011;13046;49.814;9.918;2024-02-16T09:07:03;14.80;;;12.70;;
25049;SDS011;13046;49.814;9.918;2024-02-16T09:09:30;13.68;;;12.23;;
25049;SDS011;13046;49.814;9.918;2024-02-16T09:11:58;13.40;;;12.10;;
25049;SDS011;13046;49.814;9.918;2024-02-16T09:14:24;13.77;;;12.35;;
25049;SDS011;13046;49.814;9.918;2024-02-16T09:16:51;17.08;;;12.30;;
25049;SDS011;13046;49.814;9.918;2024-02-16T09:19:17;13.45;;;11.23;;
25049;SDS011;13046;49.814;9.918;2024-02-16T09:21:48;14.98;;;12.10;;
25049;SDS011;13046;49.814;9.918;2024-02-16T09:24:14;13.73;;;12.07;;
25049;SDS011;13046;49.814;9.918;2024-02-16T09:26:43;12.45;;;11.15;;
25049;SDS011;13046;49.814;9.918;2024-02-16T09:29:12;12.20;;;10.98;;
25049;SDS011;13046;49.814;9.918;2024-02-16T09:31:38;14.88;;;12.18;;
25049;SDS011;13046;49.814;9.918;2024-02-16T09:34:05;13.45;;;12.27;;
25049;SDS011;13046;49.814;9.918;2024-02-16T09:36:31;14.40;;;12.95;;
25049;SDS011;13046;49.814;9.918;2024-02-16T09:38:57;14.70;;;11.75;;
25049;SDS011;13046;49.814;9.918;2024-02-16T09:41:23;15.45;;;12.25;;
25049;SDS011;13046;49.814;9.918;2024-02-16T09:43:49;12.15;;;10.95;;
25049;SDS011;13046;49.814;9.918;2024-02-16T09:46:19;13.20;;;11.20;;
25049;SDS011;13046;49.814;9.918;2024-02-16T09:48:45;12.00;;;10.77;;
25049;SDS011;13046;49.814;9.918;2024-02-16T09:51:13;15.52;;;12.27;;
25049;SDS011;13046;49.814;9.918;2024-02-16T09:53:41;12.85;;;11.52;;
25049;SDS011;13046;49.814;9.918;2024-02-16T09:56:07;16.55;;;12.05;;
25049;SDS011;13046;49.814;9.918;2024-02-16T09:58:36;11.90;;;10.63;;
25049;SDS011;13046;49.814;9.918;2024-02-16T10:01:02;11.45;;;9.90;;
25049;SDS011;13046;49.814;9.918;2024-02-16T10:03:28;12.90;;;11.48;;
25049;SDS011;13046;49.814;9.918;2024-02-16T10:06:16;12.40;;;10.25;;
25049;SDS011;13046;49.814;9.918;2024-02-16T10:08:54;12.93;;;11.07;;
25049;SDS011;13046;49.814;9.918;2024-02-16T10:11:22;13.45;;;10.65;;
25049;SDS011;13046;49.814;9.918;2024-02-16T10:14:02;17.73;;;11.98;;
25049;SDS011;13046;49.814;9.918;2024-02-16T10:16:28;17.58;;;10.80;;
25049;SDS011;13046;49.814;9.918;2024-02-16T10:18:55;12.52;;;11.23;;
25049;SDS011;13046;49.814;9.918;2024-02-16T10:21:27;13.80;;;10.15;;
25049;SDS011;13046;49.814;9.918;2024-02-16T10:24:00;11.68;;;10.30;;
25049;SDS011;13046;49.814;9.918;2024-02-16T10:26:30;10.82;;;9.73;;
25049;SDS011;13046;49.814;9.918;2024-02-16T10:28:57;10.85;;;9.80;;
25049;SDS011;13046;49.814;9.918;2024-02-16T10:31:23;10.88;;;9.77;;
25049;SDS011;13046;49.814;9.918;2024-02-16T10:34:03;11.73;;;10.48;;
25049;SDS011;13046;49.814;9.918;2024-02-16T10:36:35;12.13;;;10.00;;
25049;SDS011;13046;49.814;9.918;2024-02-16T10:39:02;10.40;;;9.32;;
25049;SDS011;13046;49.814;9.918;2024-02-16T10:41:30;10.27;;;8.50;;
25049;SDS011;13046;49.814;9.918;2024-02-16T10:43:59;10.48;;;8.77;;
25049;SDS011;13046;49.814;9.918;2024-02-16T10:46:26;13.13;;;9.02;;
25049;SDS011;13046;49.814;9.918;2024-02-16T10:48:53;12.80;;;8.52;;
25049;SDS011;13046;49.814;9.918;2024-02-16T10:51:30;11.65;;;8.52;;
25049;SDS011;13046;49.814;9.918;2024-02-16T10:53:57;10.05;;;8.90;;
25049;SDS011;13046;49.814;9.918;2024-02-16T10:56:28;12.13;;;8.50;;
25049;SDS011;13046;49.814;9.918;2024-02-16T10:59:00;9.68;;;7.47;;
25049;SDS011;13046;49.814;9.918;2024-02-16T11:01:26;10.98;;;8.10;;
25049;SDS011;13046;49.814;9.918;2024-02-16T11:04:00;9.70;;;7.68;;
25049;SDS011;13046;49.814;9.918;2024-02-16T11:06:27;12.32;;;9.10;;
25049;SDS011;13046;49.814;9.918;2024-02-16T11:08:53;9.55;;;7.88;;
25049;SDS011;13046;49.814;9.918;2024-02-16T11:11:23;7.38;;;6.68;;
25049;SDS011;13046;49.814;9.918;2024-02-16T11:13:49;10.30;;;7.13;;
25049;SDS011;13046;49.814;9.918;2024-02-16T11:16:15;8.88;;;7.70;;
25049;SDS011;13046;49.814;9.918;2024-02-16T11:18:45;9.07;;;8.15;;
25049;SDS011;13046;49.814;9.918;2024-02-16T11:21:12;12.73;;;8.10;;
25049;SDS011;13046;49.814;9.918;2024-02-16T11:23:40;9.02;;;7.97;;
25049;SDS011;13046;49.814;9.918;2024-02-16T11:26:09;13.80;;;7.55;;
25049;SDS011;13046;49.814;9.918;2024-02-16T11:28:40;11.50;;;8.02;;
25049;SDS011;13046;49.814;9.918;2024-02-16T11:31:06;6.68;;;6.05;;
25049;SDS011;13046;49.814;9.918;2024-02-16T11:33:33;7.07;;;5.35;;
25049;SDS011;13046;49.814;9.918;2024-02-16T11:36:00;6.22;;;5.47;;
25049;SDS011;13046;49.814;9.918;2024-02-16T11:38:26;5.68;;;5.10;;
25049;SDS011;13046;49.814;9.918;2024-02-16T11:40:53;6.80;;;4.40;;
25049;SDS011;13046;49.814;9.918;2024-02-16T11:43:23;7.45;;;5.20;;
25049;SDS011;13046;49.814;9.918;2024-02-16T11:45:49;5.35;;;3.78;;
25049;SDS011;13046;49.814;9.918;2024-02-16T11:48:19;6.28;;;3.88;;
25049;SDS011;13046;49.814;9.918;2024-02-16T11:50:46;6.05;;;3.95;;
25049;SDS011;13046;49.814;9.918;2024-02-16T11:53:19;4.75;;;3.55;;
25049;SDS011;13046;49.814;9.918;2024-02-16T11:55:46;3.92;;;2.75;;
25049;SDS011;13046;49.814;9.918;2024-02-16T11:58:12;4.20;;;3.80;;
25049;SDS011;13046;49.814;9.918;2024-02-16T12:00:39;6.53;;;3.90;;
25049;SDS011;13046;49.814;9.918;2024-02-16T12:03:06;3.97;;;3.55;;
25049;SDS011;13046;49.814;9.918;2024-02-16T12:05:34;3.45;;;3.13;;
25049;SDS011;13046;49.814;9.918;2024-02-16T12:08:00;7.30;;;5.30;;
25049;SDS011;13046;49.814;9.918;2024-02-16T12:10:26;4.90;;;3.28;;
25049;SDS011;13046;49.814;9.918;2024-02-16T12:12:53;5.50;;;3.72;;
25049;SDS011;13046;49.814;9.918;2024-02-16T12:15:19;4.95;;;3.60;;
25049;SDS011;13046;49.814;9.918;2024-02-16T12:17:45;7.38;;;3.65;;
25049;SDS011;13046;49.814;9.918;2024-02-16T12:20:12;7.32;;;4.90;;
25049;SDS011;13046;49.814;9.918;2024-02-16T12:22:41;7.40;;;3.90;;
25049;SDS011;13046;49.814;9.918;2024-02-16T12:25:07;5.85;;;4.10;;
25049;SDS011;13046;49.814;9.918;2024-02-16T12:27:33;5.35;;;3.83;;
25049;SDS011;13046;49.814;9.918;2024-02-16T12:29:59;5.43;;;3.90;;
25049;SDS011;13046;49.814;9.918;2024-02-16T12:32:25;7.03;;;3.55;;
25049;SDS011;13046;49.814;9.918;2024-02-16T12:34:52;5.55;;;3.40;;
25049;SDS011;13046;49.814;9.918;2024-02-16T12:37:18;5.35;;;3.92;;
25049;SDS011;13046;49.814;9.918;2024-02-16T12:39:44;6.30;;;3.78;;
25049;SDS011;13046;49.814;9.918;2024-02-16T12:42:11;4.63;;;3.50;;
25049;SDS011;13046;49.814;9.918;2024-02-16T12:44:38;7.00;;;4.38;;
25049;SDS011;13046;49.814;9.918;2024-02-16T12:47:04;4.22;;;3.00;;
25049;SDS011;13046;49.814;9.918;2024-02-16T12:49:31;4.20;;;2.90;;
25049;SDS011;13046;49.814;9.918;2024-02-16T12:51:57;3.47;;;3.08;;
25049;SDS011;13046;49.814;9.918;2024-02-16T12:54:23;3.53;;;2.85;;
25049;SDS011;13046;49.814;9.918;2024-02-16T12:56:50;4.18;;;3.35;;
25049;SDS011;13046;49.814;9.918;2024-02-16T12:59:16;11.48;;;4.40;;
25049;SDS011;13046;49.814;9.918;2024-02-16T13:01:42;5.70;;;3.30;;
25049;SDS011;13046;49.814;9.918;2024-02-16T13:04:09;4.93;;;3.40;;
25049;SDS011;13046;49.814;9.918;2024-02-16T13:06:35;6.20;;;3.20;;
25049;SDS011;13046;49.814;9.918;2024-02-16T13:09:01;5.40;;;3.95;;
25049;SDS011;13046;49.814;9.918;2024-02-16T13:11:28;7.80;;;3.15;;
25049;SDS011;13046;49.814;9.918;2024-02-16T13:13:54;5.05;;;3.03;;
25049;SDS011;13046;49.814;9.918;2024-02-16T13:16:20;6.53;;;3.05;;
25049;SDS011;13046;49.814;9.918;2024-02-16T13:18:46;3.83;;;2.50;;
25049;SDS011;13046;49.814;9.918;2024-02-16T13:21:12;5.32;;;2.97;;
25049;SDS011;13046;49.814;9.918;2024-02-16T13:23:40;4.05;;;3.50;;
25049;SDS011;13046;49.814;9.918;2024-02-16T13:26:06;3.47;;;2.97;;
25049;SDS011;13046;49.814;9.918;2024-02-16T13:28:33;3.65;;;3.05;;
25049;SDS011;13046;49.814;9.918;2024-02-16T13:30:59;5.60;;;2.97;;
25049;SDS011;13046;49.814;9.918;2024-02-16T13:33:26;5.75;;;3.17;;
25049;SDS011;13046;49.814;9.918;2024-02-16T13:35:52;7.93;;;3.92;;
25049;SDS011;13046;49.814;9.918;2024-02-16T13:38:19;4.32;;;3.92;;
25049;SDS011;13046;49.814;9.918;2024-02-16T13:40:45;5.13;;;3.38;;
25049;SDS011;13046;49.814;9.918;2024-02-16T13:43:13;4.18;;;3.17;;
25049;SDS011;13046;49.814;9.918;2024-02-16T13:48:15;6.65;;;3.42;;
25049;SDS011;13046;49.814;9.918;2024-02-16T13:50:43;4.50;;;3.20;;
25049;SDS011;13046;49.814;9.918;2024-02-16T13:53:09;7.28;;;4.15;;
25049;SDS011;13046;49.814;9.918;2024-02-16T13:55:36;6.15;;;3.72;;
25049;SDS011;13046;49.814;9.918;2024-02-16T13:58:02;6.78;;;3.40;;
25049;SDS011;13046;49.814;9.918;2024-02-16T14:00:28;6.10;;;2.97;;
25049;SDS011;13046;49.814;9.918;2024-02-16T14:02:54;5.30;;;3.47;;
25049;SDS011;13046;49.814;9.918;2024-02-16T14:05:20;4.72;;;3.90;;
25049;SDS011;13046;49.814;9.918;2024-02-16T14:07:47;5.25;;;3.83;;
25049;SDS011;13046;49.814;9.918;2024-02-16T14:10:13;5.20;;;3.50;;
25049;SDS011;13046;49.814;9.918;2024-02-16T14:12:39;7.93;;;4.88;;
25049;SDS011;13046;49.814;9.918;2024-02-16T14:15:06;6.80;;;3.08;;
25049;SDS011;13046;49.814;9.918;2024-02-16T14:17:32;4.85;;;2.95;;
25049;SDS011;13046;49.814;9.918;2024-02-16T14:19:58;7.65;;;3.53;;
25049;SDS011;13046;49.814;9.918;2024-02-16T14:22:24;8.27;;;3.30;;
25049;SDS011;13046;49.814;9.918;2024-02-16T14:24:50;6.65;;;3.58;;
25049;SDS011;13046;49.814;9.918;2024-02-16T14:27:16;5.72;;;3.10;;
25049;SDS011;13046;49.814;9.918;2024-02-16T14:29:42;7.10;;;3.65;;
25049;SDS011;13046;49.814;9.918;2024-02-16T14:32:08;5.88;;;3.28;;
25049;SDS011;13046;49.814;9.918;2024-02-16T14:34:34;6.97;;;4.05;;
25049;SDS011;13046;49.814;9.918;2024-02-16T14:37:00;10.93;;;3.60;;